sensor_id;sensor_type;location;lat;lon;timestamp;P1;durP1;ratioP1;P2;durP2;ratioP2
63534;SDS011;55128;50.230;18.944;2022-12-18T00:00:38;48.17;;;21.60;;
63534;SDS011;55128;50.230;18.944;2022-12-18T00:05:49;49.45;;;20.88;;
63534;SDS011;55128;50.230;18.944;2022-12-18T00:10:51;47.30;;;18.65;;
63534;SDS011;55128;50.230;18.944;2022-12-18T00:15:51;49.47;;;20.63;;
63534;SDS011;55128;50.230;18.944;2022-12-18T00:20:51;50.95;;;20.50;;
63534;SDS011;55128;50.230;18.944;2022-12-18T00:25:52;48.67;;;20.35;;
63534;SDS011;55128;50.230;18.944;2022-12-18T00:31:05;49.10;;;21.15;;
63534;SDS011;55128;50.230;18.944;2022-12-18T00:36:18;51.65;;;19.80;;
63534;SDS011;55128;50.230;18.944;2022-12-18T00:41:20;52.25;;;20.65;;
63534;SDS011;55128;50.230;18.944;2022-12-18T00:46:40;49.95;;;20.55;;
63534;SDS011;55128;50.230;18.944;2022-12-18T00:51:41;40.78;;;17.85;;
63534;SDS011;55128;50.230;18.944;2022-12-18T00:56:41;43.80;;;18.40;;
63534;SDS011;55128;50.230;18.944;2022-12-18T01:01:41;44.83;;;17.45;;
63534;SDS011;55128;50.230;18.944;2022-12-18T01:06:42;40.65;;;17.20;;
63534;SDS011;55128;50.230;18.944;2022-12-18T01:11:42;47.30;;;18.58;;
63534;SDS011;55128;50.230;18.944;2022-12-18T01:16:43;47.38;;;19.63;;
63534;SDS011;55128;50.230;18.944;2022-12-18T01:21:43;52.78;;;20.60;;
63534;SDS011;55128;50.230;18.944;2022-12-18T01:26:44;46.67;;;20.40;;
63534;SDS011;55128;50.230;18.944;2022-12-18T01:31:44;42.58;;;19.80;;
63534;SDS011;55128;50.230;18.944;2022-12-18T01:36:44;43.10;;;21.05;;
63534;SDS011;55128;50.230;18.944;2022-12-18T01:41:45;43.70;;;20.55;;
63534;SDS011;55128;50.230;18.944;2022-12-18T01:47:04;54.13;;;20.67;;
63534;SDS011;55128;50.230;18.944;2022-12-18T01:52:04;42.72;;;19.05;;
63534;SDS011;55128;50.230;18.944;2022-12-18T01:57:05;43.50;;;19.33;;
63534;SDS011;55128;50.230;18.944;2022-12-18T02:02:06;46.35;;;19.25;;
63534;SDS011;55128;50.230;18.944;2022-12-18T02:12:23;40.72;;;18.55;;
63534;SDS011;55128;50.230;18.944;2022-12-18T02:28:04;42.95;;;18.83;;
63534;SDS011;55128;50.230;18.944;2022-12-18T02:33:09;48.80;;;18.00;;
63534;SDS011;55128;50.230;18.944;2022-12-18T02:38:12;50.08;;;18.90;;
63534;SDS011;55128;50.230;18.944;2022-12-18T02:43:15;53.13;;;20.75;;
63534;SDS011;55128;50.230;18.944;2022-12-18T02:48:17;54.70;;;20.92;;
63534;SDS011;55128;50.230;18.944;2022-12-18T02:53:43;47.95;;;21.42;;
63534;SDS011;55128;50.230;18.944;2022-12-18T02:59:11;49.28;;;20.05;;
63534;SDS011;55128;50.230;18.944;2022-12-18T03:04:19;52.35;;;20.80;;
63534;SDS011;55128;50.230;18.944;2022-12-18T03:09:28;52.75;;;21.15;;
63534;SDS011;55128;50.230;18.944;2022-12-18T03:14:33;50.53;;;21.20;;
63534;SDS011;55128;50.230;18.944;2022-12-18T03:19:37;53.15;;;20.35;;
63534;SDS011;55128;50.230;18.944;2022-12-18T03:24:39;50.30;;;21.65;;
63534;SDS011;55128;50.230;18.944;2022-12-18T03:29:41;50.38;;;21.42;;
63534;SDS011;55128;50.230;18.944;2022-12-18T03:34:46;49.22;;;21.70;;
63534;SDS011;55128;50.230;18.944;2022-12-18T03:39:49;50.22;;;20.45;;
63534;SDS011;55128;50.230;18.944;2022-12-18T03:45:12;47.95;;;21.63;;
63534;SDS011;55128;50.230;18.944;2022-12-18T03:55:49;53.90;;;22.92;;
63534;SDS011;55128;50.230;18.944;2022-12-18T04:00:52;51.10;;;21.15;;
63534;SDS011;55128;50.230;18.944;2022-12-18T04:05:56;53.25;;;21.02;;
63534;SDS011;55128;50.230;18.944;2022-12-18T04:10:59;47.30;;;20.65;;
63534;SDS011;55128;50.230;18.944;2022-12-18T04:15:59;46.25;;;20.38;;
63534;SDS011;55128;50.230;18.944;2022-12-18T04:21:01;52.83;;;21.92;;
63534;SDS011;55128;50.230;18.944;2022-12-18T04:26:02;56.38;;;21.75;;
63534;SDS011;55128;50.230;18.944;2022-12-18T04:31:02;54.65;;;22.08;;
63534;SDS011;55128;50.230;18.944;2022-12-18T04:36:03;57.10;;;21.73;;
63534;SDS011;55128;50.230;18.944;2022-12-18T04:41:03;58.58;;;22.90;;
63534;SDS011;55128;50.230;18.944;2022-12-18T04:46:05;57.38;;;23.30;;
63534;SDS011;55128;50.230;18.944;2022-12-18T04:51:06;56.45;;;23.48;;
63534;SDS011;55128;50.230;18.944;2022-12-18T04:56:08;55.90;;;23.77;;
63534;SDS011;55128;50.230;18.944;2022-12-18T05:01:11;58.15;;;22.73;;
63534;SDS011;55128;50.230;18.944;2022-12-18T05:06:13;58.00;;;23.13;;
63534;SDS011;55128;50.230;18.944;2022-12-18T05:11:14;63.75;;;25.75;;
63534;SDS011;55128;50.230;18.944;2022-12-18T05:16:15;66.97;;;26.70;;
63534;SDS011;55128;50.230;18.944;2022-12-18T05:21:16;58.83;;;24.23;;
63534;SDS011;55128;50.230;18.944;2022-12-18T05:26:17;59.30;;;23.60;;
63534;SDS011;55128;50.230;18.944;2022-12-18T05:31:18;62.42;;;25.80;;
63534;SDS011;55128;50.230;18.944;2022-12-18T05:36:18;63.50;;;24.15;;
63534;SDS011;55128;50.230;18.944;2022-12-18T05:41:19;59.72;;;25.33;;
63534;SDS011;55128;50.230;18.944;2022-12-18T05:46:19;58.60;;;25.02;;
63534;SDS011;55128;50.230;18.944;2022-12-18T05:51:20;60.35;;;25.63;;
63534;SDS011;55128;50.230;18.944;2022-12-18T05:56:22;58.70;;;24.55;;
63534;SDS011;55128;50.230;18.944;2022-12-18T06:01:24;64.22;;;26.25;;
63534;SDS011;55128;50.230;18.944;2022-12-18T06:06:26;63.15;;;25.10;;
63534;SDS011;55128;50.230;18.944;2022-12-18T06:11:27;67.65;;;26.40;;
63534;SDS011;55128;50.230;18.944;2022-12-18T06:16:28;58.42;;;24.08;;
63534;SDS011;55128;50.230;18.944;2022-12-18T06:21:29;65.43;;;26.25;;
63534;SDS011;55128;50.230;18.944;2022-12-18T06:26:30;63.95;;;27.00;;
63534;SDS011;55128;50.230;18.944;2022-12-18T06:31:30;67.25;;;26.38;;
63534;SDS011;55128;50.230;18.944;2022-12-18T06:36:31;62.33;;;25.97;;
63534;SDS011;55128;50.230;18.944;2022-12-18T06:41:31;62.05;;;25.23;;
63534;SDS011;55128;50.230;18.944;2022-12-18T06:46:32;75.88;;;27.02;;
63534;SDS011;55128;50.230;18.944;2022-12-18T06:51:32;66.67;;;27.47;;
63534;SDS011;55128;50.230;18.944;2022-12-18T06:56:32;72.47;;;28.00;;
63534;SDS011;55128;50.230;18.944;2022-12-18T07:01:33;65.87;;;28.17;;
63534;SDS011;55128;50.230;18.944;2022-12-18T07:06:33;74.40;;;29.80;;
63534;SDS011;55128;50.230;18.944;2022-12-18T07:11:33;64.47;;;26.50;;
63534;SDS011;55128;50.230;18.944;2022-12-18T07:16:34;67.70;;;27.75;;
63534;SDS011;55128;50.230;18.944;2022-12-18T07:21:34;68.50;;;27.05;;
63534;SDS011;55128;50.230;18.944;2022-12-18T07:26:34;68.07;;;28.33;;
63534;SDS011;55128;50.230;18.944;2022-12-18T07:31:35;73.57;;;28.80;;
63534;SDS011;55128;50.230;18.944;2022-12-18T07:36:35;80.43;;;30.57;;
63534;SDS011;55128;50.230;18.944;2022-12-18T07:41:36;91.03;;;33.00;;
63534;SDS011;55128;50.230;18.944;2022-12-18T07:46:36;95.15;;;35.13;;
63534;SDS011;55128;50.230;18.944;2022-12-18T07:51:37;96.45;;;38.10;;
63534;SDS011;55128;50.230;18.944;2022-12-18T07:56:37;73.70;;;29.37;;
63534;SDS011;55128;50.230;18.944;2022-12-18T08:01:37;72.28;;;29.30;;
63534;SDS011;55128;50.230;18.944;2022-12-18T08:06:37;86.80;;;33.83;;
63534;SDS011;55128;50.230;18.944;2022-12-18T08:11:38;92.90;;;34.92;;
63534;SDS011;55128;50.230;18.944;2022-12-18T08:16:38;84.03;;;34.08;;
63534;SDS011;55128;50.230;18.944;2022-12-18T08:21:39;78.65;;;33.03;;
63534;SDS011;55128;50.230;18.944;2022-12-18T08:26:39;80.05;;;33.05;;
63534;SDS011;55128;50.230;18.944;2022-12-18T08:31:40;86.30;;;34.50;;
63534;SDS011;55128;50.230;18.944;2022-12-18T08:36:40;79.67;;;32.97;;
63534;SDS011;55128;50.230;18.944;2022-12-18T08:41:40;81.82;;;34.60;;
63534;SDS011;55128;50.230;18.944;2022-12-18T08:46:42;74.88;;;33.83;;
63534;SDS011;55128;50.230;18.944;2022-12-18T08:51:43;77.75;;;34.05;;
63534;SDS011;55128;50.230;18.944;2022-12-18T08:56:43;73.10;;;36.20;;
63534;SDS011;55128;50.230;18.944;2022-12-18T09:01:43;73.85;;;35.22;;
63534;SDS011;55128;50.230;18.944;2022-12-18T09:06:45;73.03;;;35.20;;
63534;SDS011;55128;50.230;18.944;2022-12-18T09:11:45;63.15;;;33.53;;
63534;SDS011;55128;50.230;18.944;2022-12-18T09:16:45;61.17;;;31.60;;
63534;SDS011;55128;50.230;18.944;2022-12-18T09:21:46;58.08;;;29.23;;
63534;SDS011;55128;50.230;18.944;2022-12-18T09:26:46;58.85;;;30.00;;
63534;SDS011;55128;50.230;18.944;2022-12-18T09:31:46;57.70;;;27.58;;
63534;SDS011;55128;50.230;18.944;2022-12-18T09:36:47;65.10;;;33.28;;
63534;SDS011;55128;50.230;18.944;2022-12-18T09:41:52;54.95;;;29.00;;
63534;SDS011;55128;50.230;18.944;2022-12-18T09:52:37;54.03;;;27.27;;
63534;SDS011;55128;50.230;18.944;2022-12-18T09:57:45;54.25;;;28.08;;
63534;SDS011;55128;50.230;18.944;2022-12-18T10:02:53;55.00;;;26.15;;
63534;SDS011;55128;50.230;18.944;2022-12-18T10:13:27;52.10;;;24.23;;
63534;SDS011;55128;50.230;18.944;2022-12-18T10:18:47;57.03;;;26.30;;
63534;SDS011;55128;50.230;18.944;2022-12-18T10:29:00;51.97;;;23.52;;
63534;SDS011;55128;50.230;18.944;2022-12-18T10:34:01;49.65;;;22.83;;
63534;SDS011;55128;50.230;18.944;2022-12-18T10:39:15;56.33;;;25.65;;
63534;SDS011;55128;50.230;18.944;2022-12-18T10:44:22;56.13;;;25.77;;
63534;SDS011;55128;50.230;18.944;2022-12-18T10:49:26;60.70;;;27.00;;
63534;SDS011;55128;50.230;18.944;2022-12-18T10:54:28;77.70;;;40.03;;
63534;SDS011;55128;50.230;18.944;2022-12-18T10:59:31;61.00;;;27.40;;
63534;SDS011;55128;50.230;18.944;2022-12-18T11:04:51;56.85;;;24.85;;
63534;SDS011;55128;50.230;18.944;2022-12-18T11:10:01;43.83;;;20.13;;
63534;SDS011;55128;50.230;18.944;2022-12-18T11:15:02;49.05;;;21.75;;
63534;SDS011;55128;50.230;18.944;2022-12-18T11:20:04;49.25;;;23.83;;
63534;SDS011;55128;50.230;18.944;2022-12-18T11:30:32;47.63;;;22.88;;
63534;SDS011;55128;50.230;18.944;2022-12-18T11:35:49;49.13;;;22.80;;
63534;SDS011;55128;50.230;18.944;2022-12-18T11:40:57;37.58;;;18.33;;
63534;SDS011;55128;50.230;18.944;2022-12-18T11:46:02;45.05;;;20.73;;
63534;SDS011;55128;50.230;18.944;2022-12-18T11:51:11;38.58;;;17.92;;
63534;SDS011;55128;50.230;18.944;2022-12-18T12:06:55;32.63;;;16.08;;
63534;SDS011;55128;50.230;18.944;2022-12-18T12:22:35;46.22;;;19.17;;
63534;SDS011;55128;50.230;18.944;2022-12-18T12:38:09;40.90;;;19.67;;
63534;SDS011;55128;50.230;18.944;2022-12-18T12:43:28;34.17;;;15.02;;
63534;SDS011;55128;50.230;18.944;2022-12-18T12:48:40;36.20;;;17.20;;
63534;SDS011;55128;50.230;18.944;2022-12-18T12:53:54;42.15;;;17.80;;
63534;SDS011;55128;50.230;18.944;2022-12-18T13:04:30;40.10;;;15.43;;
63534;SDS011;55128;50.230;18.944;2022-12-18T13:15:28;37.55;;;15.57;;
63534;SDS011;55128;50.230;18.944;2022-12-18T13:25:41;37.25;;;16.38;;
63534;SDS011;55128;50.230;18.944;2022-12-18T13:45:50;37.58;;;18.48;;
63534;SDS011;55128;50.230;18.944;2022-12-18T13:51:02;41.85;;;19.23;;
63534;SDS011;55128;50.230;18.944;2022-12-18T13:56:05;45.85;;;20.15;;
63534;SDS011;55128;50.230;18.944;2022-12-18T14:01:15;48.80;;;20.30;;
63534;SDS011;55128;50.230;18.944;2022-12-18T14:06:22;50.05;;;21.63;;
63534;SDS011;55128;50.230;18.944;2022-12-18T14:11:24;51.95;;;23.52;;
63534;SDS011;55128;50.230;18.944;2022-12-18T14:16:25;53.70;;;24.73;;
63534;SDS011;55128;50.230;18.944;2022-12-18T14:21:26;56.97;;;24.13;;
63534;SDS011;55128;50.230;18.944;2022-12-18T14:26:28;62.08;;;26.30;;
63534;SDS011;55128;50.230;18.944;2022-12-18T14:31:30;53.22;;;25.17;;
63534;SDS011;55128;50.230;18.944;2022-12-18T14:36:31;66.47;;;28.67;;
63534;SDS011;55128;50.230;18.944;2022-12-18T14:41:31;48.63;;;21.88;;
63534;SDS011;55128;50.230;18.944;2022-12-18T14:46:34;47.20;;;22.27;;
63534;SDS011;55128;50.230;18.944;2022-12-18T14:51:36;47.53;;;22.87;;
63534;SDS011;55128;50.230;18.944;2022-12-18T14:56:41;61.95;;;31.90;;
63534;SDS011;55128;50.230;18.944;2022-12-18T15:01:56;68.68;;;31.45;;
63534;SDS011;55128;50.230;18.944;2022-12-18T15:07:19;48.95;;;21.65;;
63534;SDS011;55128;50.230;18.944;2022-12-18T15:12:26;69.60;;;33.03;;
63534;SDS011;55128;50.230;18.944;2022-12-18T15:17:33;51.88;;;24.15;;
63534;SDS011;55128;50.230;18.944;2022-12-18T15:22:34;66.63;;;32.17;;
63534;SDS011;55128;50.230;18.944;2022-12-18T15:27:36;54.47;;;21.33;;
63534;SDS011;55128;50.230;18.944;2022-12-18T15:32:38;64.55;;;28.05;;
63534;SDS011;55128;50.230;18.944;2022-12-18T15:37:44;56.58;;;24.85;;
63534;SDS011;55128;50.230;18.944;2022-12-18T15:42:51;64.43;;;27.65;;
63534;SDS011;55128;50.230;18.944;2022-12-18T15:48:19;58.40;;;25.40;;
63534;SDS011;55128;50.230;18.944;2022-12-18T15:53:21;68.50;;;27.42;;
63534;SDS011;55128;50.230;18.944;2022-12-18T15:58:23;68.10;;;28.73;;
63534;SDS011;55128;50.230;18.944;2022-12-18T16:03:23;77.72;;;32.92;;
63534;SDS011;55128;50.230;18.944;2022-12-18T16:08:24;61.63;;;27.40;;
63534;SDS011;55128;50.230;18.944;2022-12-18T16:13:24;80.85;;;32.88;;
63534;SDS011;55128;50.230;18.944;2022-12-18T16:18:25;104.60;;;48.53;;
63534;SDS011;55128;50.230;18.944;2022-12-18T16:23:25;93.55;;;42.22;;
63534;SDS011;55128;50.230;18.944;2022-12-18T16:28:27;80.72;;;39.10;;
63534;SDS011;55128;50.230;18.944;2022-12-18T16:33:27;82.80;;;35.13;;
63534;SDS011;55128;50.230;18.944;2022-12-18T16:38:29;140.15;;;72.55;;
63534;SDS011;55128;50.230;18.944;2022-12-18T16:43:34;107.13;;;45.15;;
63534;SDS011;55128;50.230;18.944;2022-12-18T16:48:34;99.53;;;44.47;;
63534;SDS011;55128;50.230;18.944;2022-12-18T16:53:35;132.10;;;59.15;;
63534;SDS011;55128;50.230;18.944;2022-12-18T16:58:35;186.15;;;77.22;;
63534;SDS011;55128;50.230;18.944;2022-12-18T17:03:35;172.32;;;69.38;;
63534;SDS011;55128;50.230;18.944;2022-12-18T17:08:36;169.32;;;73.10;;
63534;SDS011;55128;50.230;18.944;2022-12-18T17:13:36;179.35;;;74.90;;
63534;SDS011;55128;50.230;18.944;2022-12-18T17:18:36;210.90;;;90.07;;
63534;SDS011;55128;50.230;18.944;2022-12-18T17:23:37;179.15;;;76.45;;
63534;SDS011;55128;50.230;18.944;2022-12-18T17:28:38;164.82;;;71.70;;
63534;SDS011;55128;50.230;18.944;2022-12-18T17:33:39;168.35;;;73.57;;
63534;SDS011;55128;50.230;18.944;2022-12-18T17:38:40;211.73;;;88.80;;
63534;SDS011;55128;50.230;18.944;2022-12-18T17:43:40;184.82;;;84.32;;
63534;SDS011;55128;50.230;18.944;2022-12-18T17:48:46;193.77;;;78.78;;
63534;SDS011;55128;50.230;18.944;2022-12-18T17:53:47;160.68;;;71.85;;
63534;SDS011;55128;50.230;18.944;2022-12-18T17:58:48;155.10;;;66.63;;
63534;SDS011;55128;50.230;18.944;2022-12-18T18:03:52;168.85;;;76.97;;
63534;SDS011;55128;50.230;18.944;2022-12-18T18:08:54;172.35;;;82.30;;
63534;SDS011;55128;50.230;18.944;2022-12-18T18:13:55;163.35;;;69.82;;
63534;SDS011;55128;50.230;18.944;2022-12-18T18:19:03;164.10;;;68.47;;
63534;SDS011;55128;50.230;18.944;2022-12-18T18:24:05;164.02;;;69.50;;
63534;SDS011;55128;50.230;18.944;2022-12-18T18:29:06;145.93;;;67.97;;
63534;SDS011;55128;50.230;18.944;2022-12-18T18:34:12;109.80;;;49.85;;
63534;SDS011;55128;50.230;18.944;2022-12-18T18:39:14;118.05;;;51.53;;
63534;SDS011;55128;50.230;18.944;2022-12-18T18:44:15;131.88;;;62.85;;
63534;SDS011;55128;50.230;18.944;2022-12-18T18:49:16;124.22;;;48.70;;
63534;SDS011;55128;50.230;18.944;2022-12-18T18:54:17;121.95;;;51.78;;
63534;SDS011;55128;50.230;18.944;2022-12-18T18:59:17;128.23;;;57.57;;
63534;SDS011;55128;50.230;18.944;2022-12-18T19:04:17;140.73;;;67.75;;
63534;SDS011;55128;50.230;18.944;2022-12-18T19:09:18;137.13;;;63.58;;
63534;SDS011;55128;50.230;18.944;2022-12-18T19:14:18;138.07;;;60.90;;
63534;SDS011;55128;50.230;18.944;2022-12-18T19:19:19;108.13;;;51.20;;
63534;SDS011;55128;50.230;18.944;2022-12-18T19:24:19;95.05;;;46.60;;
63534;SDS011;55128;50.230;18.944;2022-12-18T19:29:20;132.80;;;62.35;;
63534;SDS011;55128;50.230;18.944;2022-12-18T19:34:21;147.30;;;66.45;;
63534;SDS011;55128;50.230;18.944;2022-12-18T19:39:21;138.52;;;63.88;;
63534;SDS011;55128;50.230;18.944;2022-12-18T19:44:21;132.07;;;62.45;;
63534;SDS011;55128;50.230;18.944;2022-12-18T19:49:22;141.55;;;62.97;;
63534;SDS011;55128;50.230;18.944;2022-12-18T19:54:22;127.80;;;58.85;;
63534;SDS011;55128;50.230;18.944;2022-12-18T19:59:22;115.53;;;53.08;;
63534;SDS011;55128;50.230;18.944;2022-12-18T20:04:23;141.45;;;69.13;;
63534;SDS011;55128;50.230;18.944;2022-12-18T20:09:23;123.20;;;55.92;;
63534;SDS011;55128;50.230;18.944;2022-12-18T20:14:23;110.13;;;52.50;;
63534;SDS011;55128;50.230;18.944;2022-12-18T20:19:24;117.15;;;57.00;;
63534;SDS011;55128;50.230;18.944;2022-12-18T20:24:25;105.40;;;43.78;;
63534;SDS011;55128;50.230;18.944;2022-12-18T20:29:26;134.73;;;53.55;;
63534;SDS011;55128;50.230;18.944;2022-12-18T20:34:27;121.20;;;52.22;;
63534;SDS011;55128;50.230;18.944;2022-12-18T20:39:27;111.30;;;53.53;;
63534;SDS011;55128;50.230;18.944;2022-12-18T20:44:29;107.18;;;48.15;;
63534;SDS011;55128;50.230;18.944;2022-12-18T20:49:29;138.40;;;55.25;;
63534;SDS011;55128;50.230;18.944;2022-12-18T20:54:29;141.05;;;46.58;;
63534;SDS011;55128;50.230;18.944;2022-12-18T20:59:30;139.90;;;50.50;;
63534;SDS011;55128;50.230;18.944;2022-12-18T21:04:30;107.43;;;38.13;;
63534;SDS011;55128;50.230;18.944;2022-12-18T21:09:30;107.75;;;39.90;;
63534;SDS011;55128;50.230;18.944;2022-12-18T21:14:31;104.05;;;43.30;;
63534;SDS011;55128;50.230;18.944;2022-12-18T21:19:32;99.30;;;40.63;;
63534;SDS011;55128;50.230;18.944;2022-12-18T21:24:32;97.32;;;46.22;;
63534;SDS011;55128;50.230;18.944;2022-12-18T21:29:33;117.75;;;42.28;;
63534;SDS011;55128;50.230;18.944;2022-12-18T21:34:34;94.97;;;40.10;;
63534;SDS011;55128;50.230;18.944;2022-12-18T21:39:34;87.65;;;37.88;;
63534;SDS011;55128;50.230;18.944;2022-12-18T21:44:35;154.70;;;51.85;;
63534;SDS011;55128;50.230;18.944;2022-12-18T21:49:36;179.57;;;65.25;;
63534;SDS011;55128;50.230;18.944;2022-12-18T21:54:36;127.95;;;45.80;;
63534;SDS011;55128;50.230;18.944;2022-12-18T21:59:37;75.03;;;31.88;;
63534;SDS011;55128;50.230;18.944;2022-12-18T22:04:39;91.65;;;34.53;;
63534;SDS011;55128;50.230;18.944;2022-12-18T22:09:40;90.20;;;35.25;;
63534;SDS011;55128;50.230;18.944;2022-12-18T22:14:41;88.65;;;34.88;;
63534;SDS011;55128;50.230;18.944;2022-12-18T22:19:41;84.33;;;36.60;;
63534;SDS011;55128;50.230;18.944;2022-12-18T22:24:41;99.33;;;39.80;;
63534;SDS011;55128;50.230;18.944;2022-12-18T22:29:42;92.28;;;37.92;;
63534;SDS011;55128;50.230;18.944;2022-12-18T22:35:02;114.68;;;47.78;;
63534;SDS011;55128;50.230;18.944;2022-12-18T22:40:04;87.65;;;35.65;;
63534;SDS011;55128;50.230;18.944;2022-12-18T22:45:05;95.43;;;37.40;;
63534;SDS011;55128;50.230;18.944;2022-12-18T22:50:06;108.05;;;42.70;;
63534;SDS011;55128;50.230;18.944;2022-12-18T22:55:07;116.55;;;47.15;;
63534;SDS011;55128;50.230;18.944;2022-12-18T23:00:08;126.57;;;49.28;;
63534;SDS011;55128;50.230;18.944;2022-12-18T23:05:09;154.75;;;57.50;;
63534;SDS011;55128;50.230;18.944;2022-12-18T23:10:09;111.47;;;46.50;;
63534;SDS011;55128;50.230;18.944;2022-12-18T23:15:10;104.07;;;44.60;;
63534;SDS011;55128;50.230;18.944;2022-12-18T23:20:10;118.40;;;47.20;;
63534;SDS011;55128;50.230;18.944;2022-12-18T23:25:11;107.20;;;45.03;;
63534;SDS011;55128;50.230;18.944;2022-12-18T23:30:11;104.10;;;43.13;;
63534;SDS011;55128;50.230;18.944;2022-12-18T23:35:12;107.57;;;42.75;;
63534;SDS011;55128;50.230;18.944;2022-12-18T23:40:12;104.30;;;45.17;;
63534;SDS011;55128;50.230;18.944;2022-12-18T23:45:12;98.18;;;40.15;;
63534;SDS011;55128;50.230;18.944;2022-12-18T23:50:13;95.55;;;40.47;;
63534;SDS011;55128;50.230;18.944;2022-12-18T23:55:13;100.50;;;40.53;;
